Startpagina
METAR-TAF:

METAR-TAF

Vliegvelden :

K14-fa-1c, Nederland

Productieplatform

breedte: 53-16-10N, lengte: 3-37-40E, hoogte: 28 m

Actueel weer

Dit bericht is 37 minuten geleden gemaakt, om 05:25 UTC
Wind 19 kt uit het zuidwesten
Temperatuur 15°C
Vochtigheid 94%
Druk 1016 hPa
Zicht 10 km of meer
Weinig wolken op 300 ft
Verspreide wolken op 500 ft
Gebroken wolken op 1100 ft

METAR: EHKV 240525Z AUTO 22019KT 9999 FEW003 SCT005 BKN011 15/14 Q1016

Tijdstip: 08:02 (06:02 UTC)


TAF: ontbreekt

Waarnemingen en weersverwachtingen van meer dan 4000 vliegvelden (METAR en TAF).

De beschikbare stations zijn de gele en rode punten op de kaart.

Ga met uw muis naar het station om de naam te zien.

Klik dan om waarnemingen en weersverwachtingen te zien.

kaart wijzigen: klik op de groene knoppen met een zwart kruis om in te zoomen, op de groene knop met een streepje om uit te zoomen of op de groene pijlen voor aangrenzende kaarten.


METAR-TAF: